Time;durP1;ratioP1;P1;durP2;ratioP2;P2;SDS_P1;SDS_P2;PMS_P1;PMS_P2;Temp;Humidity;BMP_temperature;BMP_pressure;BME280_temperature;BME280_humidity;BME280_pressure;Samples;Min_cycle;Max_cycle;Signal;HPM_P1;HPM_P2
2021/09/09 00:00:38;;;;;;;3.55;3.45;;;;;;;;;;5025908;28;20050;-79
2021/09/09 00:03:05;;;;;;;3.20;3.05;;;;;;;;;;5025254;28;20048;-79
2021/09/09 00:05:51;;;;;;;3.22;3.13;;;;;;;;;;5014836;28;20041;-79
2021/09/09 00:08:18;;;;;;;3.13;3.03;;;;;;;;;;5019824;28;20046;-79
2021/09/09 00:10:45;;;;;;;2.97;2.78;;;;;;;;;;5028119;28;20069;-79
2021/09/09 00:13:11;;;;;;;3.35;3.25;;;;;;;;;;5027103;28;20080;-79
2021/09/09 00:15:38;;;;;;;3.03;2.83;;;;;;;;;;5028108;28;20041;-79
2021/09/09 00:18:05;;;;;;;3.55;3.45;;;;;;;;;;5028986;28;20366;-79
2021/09/09 00:20:32;;;;;;;3.17;3.08;;;;;;;;;;5029084;28;20457;-79
2021/09/09 00:22:59;;;;;;;2.47;2.38;;;;;;;;;;5029677;28;20045;-79
2021/09/09 00:25:25;;;;;;;3.40;3.20;;;;;;;;;;5034068;28;20048;-79
2021/09/09 00:27:52;;;;;;;3.92;3.83;;;;;;;;;;5028679;28;20038;-79
2021/09/09 00:30:19;;;;;;;2.40;2.30;;;;;;;;;;5017149;28;20045;-79
2021/09/09 00:32:46;;;;;;;2.78;2.67;;;;;;;;;;5019934;28;20080;-79
2021/09/09 00:35:12;;;;;;;2.92;2.83;;;;;;;;;;5027639;28;20130;-79
2021/09/09 00:37:39;;;;;;;2.92;2.72;;;;;;;;;;5032786;28;20042;-79
2021/09/09 00:40:06;;;;;;;2.65;2.35;;;;;;;;;;5048829;28;20053;-79
2021/09/09 00:42:34;;;;;;;4.85;2.85;;;;;;;;;;5022094;28;20502;-79
2021/09/09 00:45:01;;;;;;;3.28;2.25;;;;;;;;;;5033731;28;20045;-79
2021/09/09 00:47:28;;;;;;;3.03;2.58;;;;;;;;;;5062622;28;20073;-79
2021/09/09 00:49:54;;;;;;;3.08;2.97;;;;;;;;;;5031749;28;20076;-79
2021/09/09 00:52:21;;;;;;;3.88;3.67;;;;;;;;;;5032606;28;20044;-79
2021/09/09 00:54:48;;;;;;;3.28;3.10;;;;;;;;;;5031737;28;20037;-79
2021/09/09 00:57:16;;;;;;;3.13;2.80;;;;;;;;;;5012204;28;20050;-79
2021/09/09 00:59:44;;;;;;;2.63;2.53;;;;;;;;;;5031247;28;20037;-79
2021/09/09 01:02:10;;;;;;;2.42;2.33;;;;;;;;;;5030982;28;20458;-79
2021/09/09 01:04:38;;;;;;;5.28;3.08;;;;;;;;;;5032436;28;20588;-79
2021/09/09 01:07:05;;;;;;;3.85;3.65;;;;;;;;;;5031887;28;20045;-79
2021/09/09 01:09:31;;;;;;;3.97;3.70;;;;;;;;;;5022153;28;20092;-79
2021/09/09 01:11:58;;;;;;;3.03;2.83;;;;;;;;;;5031129;28;20091;-79
2021/09/09 01:14:26;;;;;;;2.88;2.78;;;;;;;;;;5031857;28;20049;-79
2021/09/09 01:16:53;;;;;;;2.60;2.50;;;;;;;;;;5031092;28;20045;-79
2021/09/09 01:19:19;;;;;;;2.95;2.75;;;;;;;;;;5030090;28;20466;-79
2021/09/09 01:21:46;;;;;;;2.35;2.22;;;;;;;;;;5031643;28;20052;-79
2021/09/09 01:24:17;;;;;;;3.20;3.10;;;;;;;;;;5015910;28;20569;-79
2021/09/09 01:26:52;;;;;;;3.28;3.13;;;;;;;;;;5037215;28;20049;-79
2021/09/09 01:29:21;;;;;;;3.67;3.58;;;;;;;;;;5030547;28;20048;-79
2021/09/09 01:31:48;;;;;;;3.08;2.92;;;;;;;;;;5030327;28;20467;-79
2021/09/09 01:34:15;;;;;;;3.83;3.53;;;;;;;;;;5031712;28;20878;-79
2021/09/09 01:36:42;;;;;;;2.72;2.63;;;;;;;;;;5045083;28;20469;-79
2021/09/09 01:39:09;;;;;;;3.00;2.90;;;;;;;;;;5030569;28;20073;-79
2021/09/09 01:41:35;;;;;;;4.13;4.03;;;;;;;;;;5032216;28;20059;-79
2021/09/09 01:44:03;;;;;;;6.15;3.65;;;;;;;;;;5030416;28;20440;-79
2021/09/09 01:46:30;;;;;;;2.83;2.72;;;;;;;;;;5018352;28;20092;-79
2021/09/09 01:48:57;;;;;;;3.65;3.55;;;;;;;;;;5020800;28;20380;-79
2021/09/09 01:51:25;;;;;;;3.30;3.20;;;;;;;;;;5022492;28;20040;-79
2021/09/09 01:53:53;;;;;;;4.63;4.43;;;;;;;;;;5015789;28;20046;-79
2021/09/09 01:56:20;;;;;;;3.25;2.78;;;;;;;;;;5031688;28;20100;-79
2021/09/09 01:58:47;;;;;;;3.65;3.45;;;;;;;;;;5021089;28;20033;-79
2021/09/09 02:01:15;;;;;;;3.28;3.08;;;;;;;;;;5031824;28;20072;-79
2021/09/09 02:03:42;;;;;;;3.38;3.17;;;;;;;;;;5031436;28;20041;-79
2021/09/09 02:06:09;;;;;;;3.60;3.40;;;;;;;;;;5014154;28;20049;-79
2021/09/09 02:08:36;;;;;;;4.72;4.60;;;;;;;;;;5062796;28;20045;-79
2021/09/09 02:11:03;;;;;;;3.20;3.00;;;;;;;;;;5060879;28;20060;-79
2021/09/09 02:13:29;;;;;;;7.00;3.15;;;;;;;;;;5023862;28;20042;-79
2021/09/09 02:15:56;;;;;;;3.67;3.47;;;;;;;;;;5030011;28;20092;-79
2021/09/09 02:18:23;;;;;;;3.28;3.10;;;;;;;;;;5055203;28;20033;-79
2021/09/09 02:20:50;;;;;;;3.17;3.08;;;;;;;;;;5056107;28;20076;-79
2021/09/09 02:23:16;;;;;;;3.80;3.70;;;;;;;;;;5018893;28;21943;-79
2021/09/09 02:25:43;;;;;;;3.25;3.15;;;;;;;;;;5046388;28;20037;-79
2021/09/09 02:28:10;;;;;;;3.15;3.05;;;;;;;;;;5044267;28;20049;-79
2021/09/09 02:30:37;;;;;;;3.70;3.50;;;;;;;;;;5008732;28;20474;-79
2021/09/09 02:33:04;;;;;;;3.33;3.08;;;;;;;;;;5029639;28;20041;-79
2021/09/09 02:35:31;;;;;;;4.78;4.47;;;;;;;;;;5029844;28;20834;-79
2021/09/09 02:37:58;;;;;;;3.88;3.78;;;;;;;;;;5031239;28;20499;-79
2021/09/09 02:40:24;;;;;;;3.75;3.65;;;;;;;;;;5028425;28;20052;-79
2021/09/09 02:42:51;;;;;;;3.25;3.15;;;;;;;;;;5027962;28;20053;-79
2021/09/09 02:45:18;;;;;;;3.97;3.88;;;;;;;;;;5030492;28;20571;-79
2021/09/09 02:47:45;;;;;;;4.00;3.65;;;;;;;;;;5028954;28;20116;-79
2021/09/09 02:50:12;;;;;;;4.30;4.10;;;;;;;;;;5013519;28;20144;-79
2021/09/09 02:52:39;;;;;;;3.90;3.78;;;;;;;;;;5041655;28;20094;-79
2021/09/09 02:55:07;;;;;;;4.13;3.92;;;;;;;;;;5025917;28;20379;-79
2021/09/09 02:57:34;;;;;;;3.35;3.25;;;;;;;;;;5022410;28;20073;-79
2021/09/09 03:00:01;;;;;;;4.40;4.20;;;;;;;;;;5060917;28;20029;-79
2021/09/09 03:02:28;;;;;;;3.95;3.65;;;;;;;;;;5030849;28;20059;-79
2021/09/09 03:04:55;;;;;;;3.83;3.55;;;;;;;;;;5026990;28;20041;-79
2021/09/09 03:07:21;;;;;;;4.40;4.30;;;;;;;;;;5060017;28;20104;-79
2021/09/09 03:09:48;;;;;;;3.25;3.15;;;;;;;;;;5019694;28;20049;-79
2021/09/09 03:12:15;;;;;;;4.55;3.88;;;;;;;;;;5056309;28;20545;-79
2021/09/09 03:14:42;;;;;;;3.80;3.45;;;;;;;;;;5051285;28;20084;-79
2021/09/09 03:17:10;;;;;;;2.67;2.35;;;;;;;;;;5029589;28;20465;-79
2021/09/09 03:19:38;;;;;;;3.05;2.95;;;;;;;;;;5028984;28;20045;-79
2021/09/09 03:22:05;;;;;;;3.42;3.13;;;;;;;;;;5045469;28;20045;-79
2021/09/09 03:24:32;;;;;;;3.80;3.60;;;;;;;;;;5029166;28;20059;-79
2021/09/09 03:27:02;;;;;;;4.30;3.90;;;;;;;;;;5048503;28;20041;-79
2021/09/09 03:29:29;;;;;;;4.25;4.15;;;;;;;;;;5025524;28;20693;-79
2021/09/09 03:31:56;;;;;;;3.70;3.60;;;;;;;;;;5029330;28;20048;-79
2021/09/09 03:34:22;;;;;;;3.97;3.88;;;;;;;;;;5030001;28;20044;-79
2021/09/09 03:36:49;;;;;;;3.30;3.15;;;;;;;;;;5026099;28;20148;-79
2021/09/09 03:39:16;;;;;;;3.58;3.47;;;;;;;;;;5027348;28;20037;-79
2021/09/09 03:41:42;;;;;;;4.22;4.07;;;;;;;;;;5022026;28;20426;-79
2021/09/09 03:44:09;;;;;;;3.28;3.17;;;;;;;;;;5032690;28;20445;-79
2021/09/09 03:46:36;;;;;;;4.18;3.28;;;;;;;;;;5029887;28;20045;-79
2021/09/09 03:49:03;;;;;;;3.42;3.28;;;;;;;;;;5059622;28;20041;-79
2021/09/09 03:51:30;;;;;;;2.97;2.78;;;;;;;;;;5028938;28;20125;-79
2021/09/09 03:53:57;;;;;;;3.78;3.58;;;;;;;;;;5030044;28;20037;-79
2021/09/09 03:56:23;;;;;;;3.08;2.97;;;;;;;;;;5058202;28;20041;-79
2021/09/09 03:58:50;;;;;;;4.75;4.28;;;;;;;;;;5019469;28;20107;-79
2021/09/09 04:01:17;;;;;;;4.05;3.85;;;;;;;;;;5026359;28;20042;-79
2021/09/09 04:03:46;;;;;;;3.92;3.63;;;;;;;;;;5028004;28;20613;-79
2021/09/09 04:06:13;;;;;;;4.22;3.65;;;;;;;;;;5027778;28;20045;-79
2021/09/09 04:08:40;;;;;;;3.85;3.72;;;;;;;;;;5036543;28;20100;-79
2021/09/09 04:11:07;;;;;;;4.10;3.97;;;;;;;;;;5028064;28;20044;-79
2021/09/09 04:13:37;;;;;;;4.38;4.20;;;;;;;;;;5027645;28;20486;-79
2021/09/09 04:16:04;;;;;;;4.70;4.57;;;;;;;;;;5027573;28;20099;-79
2021/09/09 04:18:31;;;;;;;3.90;3.60;;;;;;;;;;5019597;28;20129;-79
2021/09/09 04:20:58;;;;;;;4.93;4.50;;;;;;;;;;5026786;28;20041;-79
2021/09/09 04:23:25;;;;;;;4.25;4.15;;;;;;;;;;5026064;28;20456;-79
2021/09/09 04:25:52;;;;;;;4.53;4.18;;;;;;;;;;5023423;28;20044;-79
2021/09/09 04:28:19;;;;;;;4.65;4.53;;;;;;;;;;5019755;28;20037;-79
2021/09/09 04:30:48;;;;;;;5.47;5.15;;;;;;;;;;5028958;28;20030;-79
2021/09/09 04:33:17;;;;;;;5.68;5.18;;;;;;;;;;5026223;28;20049;-79
2021/09/09 04:35:44;;;;;;;4.85;4.55;;;;;;;;;;5027002;28;20568;-79
2021/09/09 04:38:11;;;;;;;5.28;4.97;;;;;;;;;;5020906;28;20042;-79
2021/09/09 04:40:37;;;;;;;4.68;4.35;;;;;;;;;;5024803;28;20079;-79
2021/09/09 04:43:04;;;;;;;5.43;4.97;;;;;;;;;;5027324;28;20049;-79
2021/09/09 04:45:31;;;;;;;5.50;5.00;;;;;;;;;;5025562;28;20866;-79
2021/09/09 04:47:58;;;;;;;4.68;4.57;;;;;;;;;;5045180;28;20050;-79
2021/09/09 04:50:27;;;;;;;4.85;4.50;;;;;;;;;;5051527;28;20428;-79
2021/09/09 04:52:53;;;;;;;4.20;4.07;;;;;;;;;;5050818;28;20042;-79
2021/09/09 04:55:20;;;;;;;4.60;4.30;;;;;;;;;;5027588;28;20132;-79
2021/09/09 04:57:47;;;;;;;4.93;4.22;;;;;;;;;;5023349;28;20121;-79
2021/09/09 05:00:14;;;;;;;4.95;4.25;;;;;;;;;;5021251;28;20080;-79
2021/09/09 05:02:40;;;;;;;9.55;4.40;;;;;;;;;;5026209;28;20497;-79
2021/09/09 05:05:08;;;;;;;5.88;4.82;;;;;;;;;;5058569;28;20502;-79
2021/09/09 05:07:35;;;;;;;4.63;4.40;;;;;;;;;;5027755;28;20060;-79
2021/09/09 05:10:02;;;;;;;7.90;4.22;;;;;;;;;;5028546;28;20037;-79
2021/09/09 05:12:30;;;;;;;4.90;4.65;;;;;;;;;;5031036;28;20523;-79
2021/09/09 05:14:56;;;;;;;5.15;5.03;;;;;;;;;;5030061;28;20113;-79
2021/09/09 05:17:23;;;;;;;4.55;4.43;;;;;;;;;;5063174;28;20045;-79
2021/09/09 05:19:50;;;;;;;6.22;5.00;;;;;;;;;;5013695;28;20049;-79
2021/09/09 05:22:17;;;;;;;6.07;5.07;;;;;;;;;;5031491;28;20045;-80
2021/09/09 05:24:44;;;;;;;7.10;5.28;;;;;;;;;;5033052;28;20037;-80
2021/09/09 05:27:11;;;;;;;5.10;4.90;;;;;;;;;;5021347;28;20053;-80
2021/09/09 05:29:38;;;;;;;5.47;5.25;;;;;;;;;;5059791;28;20140;-80
2021/09/09 05:32:06;;;;;;;4.47;4.28;;;;;;;;;;5032202;28;20045;-80
2021/09/09 05:34:33;;;;;;;5.13;4.82;;;;;;;;;;5031194;28;20041;-80
2021/09/09 05:36:59;;;;;;;4.13;3.80;;;;;;;;;;5062299;28;20061;-80
2021/09/09 05:39:26;;;;;;;5.38;5.05;;;;;;;;;;5030989;28;20107;-80
2021/09/09 05:41:52;;;;;;;6.65;5.90;;;;;;;;;;5029683;28;20041;-80
2021/09/09 05:44:19;;;;;;;5.85;5.55;;;;;;;;;;5030833;28;20129;-80
2021/09/09 05:46:46;;;;;;;5.45;4.97;;;;;;;;;;5027212;28;20053;-80
2021/09/09 05:49:13;;;;;;;5.88;5.68;;;;;;;;;;5031738;28;20053;-80
2021/09/09 05:51:39;;;;;;;5.93;5.40;;;;;;;;;;5015207;28;20041;-80
2021/09/09 05:54:06;;;;;;;6.63;6.10;;;;;;;;;;5029822;28;20029;-80
2021/09/09 05:56:33;;;;;;;6.03;5.72;;;;;;;;;;5031934;28;20056;-80
2021/09/09 05:59:00;;;;;;;10.00;6.60;;;;;;;;;;5024804;28;20030;-80
2021/09/09 06:01:30;;;;;;;7.53;5.47;;;;;;;;;;5021222;28;20045;-80
2021/09/09 06:03:57;;;;;;;5.70;5.45;;;;;;;;;;5032556;28;20112;-80
2021/09/09 06:06:25;;;;;;;5.22;4.82;;;;;;;;;;5027550;28;20107;-80
2021/09/09 06:08:52;;;;;;;5.78;5.03;;;;;;;;;;5016544;28;20042;-79
2021/09/09 06:11:19;;;;;;;4.60;4.40;;;;;;;;;;5022393;28;20096;-79
2021/09/09 06:13:46;;;;;;;5.75;5.18;;;;;;;;;;5026678;28;20048;-79
2021/09/09 06:16:12;;;;;;;4.95;4.75;;;;;;;;;;5015607;28;20042;-79
2021/09/09 06:18:39;;;;;;;6.03;5.53;;;;;;;;;;5060143;28;20073;-80
2021/09/09 06:21:06;;;;;;;5.13;4.93;;;;;;;;;;5045523;28;20390;-80
2021/09/09 06:23:33;;;;;;;5.50;5.30;;;;;;;;;;5036437;28;20058;-80
2021/09/09 06:26:15;;;;;;;6.63;6.00;;;;;;;;;;5041208;28;20615;-80
2021/09/09 06:28:42;;;;;;;5.78;5.28;;;;;;;;;;5047804;28;20033;-80
2021/09/09 06:31:09;;;;;;;5.50;5.10;;;;;;;;;;5045418;28;20076;-80
2021/09/09 06:33:36;;;;;;;5.45;4.13;;;;;;;;;;5021353;28;20794;-80
2021/09/09 06:36:03;;;;;;;4.80;4.60;;;;;;;;;;5028858;28;20138;-80
2021/09/09 06:38:30;;;;;;;6.15;5.40;;;;;;;;;;5029324;28;20041;-80
2021/09/09 06:40:56;;;;;;;5.10;4.78;;;;;;;;;;5031050;28;20551;-80
2021/09/09 06:43:23;;;;;;;5.28;5.05;;;;;;;;;;5030021;28;20056;-79
2021/09/09 06:45:50;;;;;;;5.05;4.75;;;;;;;;;;5061324;28;20092;-79
2021/09/09 06:48:17;;;;;;;5.72;5.35;;;;;;;;;;5006953;28;20052;-79
2021/09/09 06:50:44;;;;;;;5.15;4.78;;;;;;;;;;5042218;28;20497;-79
2021/09/09 06:53:11;;;;;;;4.78;4.18;;;;;;;;;;5031452;28;20100;-79
2021/09/09 06:55:38;;;;;;;5.05;4.47;;;;;;;;;;5030121;28;20046;-79
2021/09/09 06:58:05;;;;;;;7.35;3.53;;;;;;;;;;5030422;28;20041;-79
2021/09/09 07:00:31;;;;;;;5.10;4.90;;;;;;;;;;5047265;28;20095;-80
2021/09/09 07:02:59;;;;;;;5.03;4.72;;;;;;;;;;5028532;28;20113;-79
2021/09/09 07:05:26;;;;;;;5.68;4.95;;;;;;;;;;5045349;28;20044;-80
2021/09/09 07:07:53;;;;;;;4.45;3.95;;;;;;;;;;5029626;28;20041;-79
2021/09/09 07:10:19;;;;;;;3.30;3.20;;;;;;;;;;5027129;28;20073;-79
2021/09/09 07:12:46;;;;;;;5.10;4.90;;;;;;;;;;5031640;28;20048;-79
2021/09/09 07:15:13;;;;;;;4.68;4.38;;;;;;;;;;5025453;28;20034;-79
2021/09/09 07:17:40;;;;;;;4.07;3.75;;;;;;;;;;5054298;28;20045;-79
2021/09/09 07:20:06;;;;;;;4.55;4.35;;;;;;;;;;5025448;28;20049;-79
2021/09/09 07:22:33;;;;;;;2.33;2.22;;;;;;;;;;5024460;28;20096;-80
2021/09/09 07:25:00;;;;;;;2.92;2.83;;;;;;;;;;5012898;28;20095;-80
2021/09/09 07:27:27;;;;;;;3.70;3.50;;;;;;;;;;5024629;28;20486;-80
2021/09/09 07:29:54;;;;;;;5.47;2.60;;;;;;;;;;5034000;28;20114;-80
2021/09/09 07:32:23;;;;;;;3.38;3.13;;;;;;;;;;5029430;28;20506;-80
2021/09/09 07:34:50;;;;;;;3.15;2.85;;;;;;;;;;5044881;28;20033;-79
2021/09/09 07:37:16;;;;;;;12.40;3.88;;;;;;;;;;5028658;28;20041;-79
2021/09/09 07:39:46;;;;;;;3.35;3.25;;;;;;;;;;5043342;28;20053;-79
2021/09/09 07:42:13;;;;;;;5.93;2.70;;;;;;;;;;5013401;28;20033;-79
2021/09/09 07:44:40;;;;;;;4.97;3.38;;;;;;;;;;5029847;28;20045;-79
2021/09/09 07:47:07;;;;;;;3.35;2.92;;;;;;;;;;5025909;28;20474;-80
2021/09/09 07:49:34;;;;;;;5.18;2.80;;;;;;;;;;5045516;28;20045;-79
2021/09/09 07:52:01;;;;;;;4.30;2.67;;;;;;;;;;5023113;28;20140;-79
2021/09/09 07:54:27;;;;;;;2.53;2.25;;;;;;;;;;5019746;28;20597;-79
2021/09/09 07:56:54;;;;;;;3.13;3.03;;;;;;;;;;5031272;28;20080;-79
2021/09/09 07:59:21;;;;;;;3.00;2.80;;;;;;;;;;5027627;28;20359;-79
2021/09/09 08:01:48;;;;;;;3.22;2.85;;;;;;;;;;5029164;28;20045;-79
2021/09/09 08:04:16;;;;;;;4.80;2.47;;;;;;;;;;5025946;28;20471;-79
2021/09/09 08:06:44;;;;;;;2.03;1.92;;;;;;;;;;5037739;28;20057;-79
2021/09/09 08:09:11;;;;;;;3.35;2.22;;;;;;;;;;5030329;28;20046;-79
2021/09/09 08:11:39;;;;;;;4.30;2.55;;;;;;;;;;5055376;28;20694;-80
2021/09/09 08:14:06;;;;;;;3.03;2.50;;;;;;;;;;5017152;28;20033;-80
2021/09/09 08:16:33;;;;;;;3.30;2.55;;;;;;;;;;5019776;28;20506;-80
2021/09/09 08:19:00;;;;;;;2.05;1.95;;;;;;;;;;5025785;28;20064;-80
2021/09/09 08:21:27;;;;;;;2.10;2.00;;;;;;;;;;5029367;28;20060;-80
2021/09/09 08:23:53;;;;;;;2.22;1.65;;;;;;;;;;5039256;28;20034;-80
2021/09/09 08:26:20;;;;;;;3.30;1.60;;;;;;;;;;5028917;28;20106;-80
2021/09/09 08:28:47;;;;;;;3.58;2.15;;;;;;;;;;5028640;28;20045;-80
2021/09/09 08:31:14;;;;;;;1.75;1.65;;;;;;;;;;5028842;28;20132;-80
2021/09/09 08:33:42;;;;;;;7.65;2.67;;;;;;;;;;5029039;28;20065;-80
2021/09/09 08:36:11;;;;;;;3.92;1.80;;;;;;;;;;5045138;28;20394;-80
2021/09/09 08:38:38;;;;;;;2.63;2.15;;;;;;;;;;5027883;28;20426;-80
2021/09/09 08:41:04;;;;;;;2.55;1.48;;;;;;;;;;5028486;28;20176;-80
2021/09/09 08:43:32;;;;;;;2.33;2.22;;;;;;;;;;5028902;28;20045;-80
2021/09/09 08:46:00;;;;;;;3.30;2.05;;;;;;;;;;5032150;28;20038;-80
2021/09/09 08:48:27;;;;;;;1.90;1.80;;;;;;;;;;5033395;28;20129;-80
2021/09/09 08:50:54;;;;;;;2.40;1.30;;;;;;;;;;5025885;28;20067;-80
2021/09/09 08:53:21;;;;;;;2.42;1.33;;;;;;;;;;5033412;28;20462;-80
2021/09/09 08:55:49;;;;;;;1.48;1.38;;;;;;;;;;5062040;28;20552;-80
2021/09/09 08:58:16;;;;;;;2.75;1.75;;;;;;;;;;5017734;28;20038;-80
2021/09/09 09:01:02;;;;;;;1.85;1.60;;;;;;;;;;5034363;28;20504;-80
2021/09/09 09:03:43;;;;;;;1.85;1.75;;;;;;;;;;5030994;28;20038;-80
2021/09/09 09:06:40;;;;;;;1.30;1.30;;;;;;;;;;5018583;28;20037;-80
2021/09/09 09:09:11;;;;;;;1.30;1.23;;;;;;;;;;4990324;28;20158;-80
2021/09/09 09:11:44;;;;;;;2.20;1.45;;;;;;;;;;4992907;28;20054;-80
2021/09/09 09:14:17;;;;;;;1.17;1.17;;;;;;;;;;4974160;28;20050;-80
2021/09/09 09:16:51;;;;;;;1.58;1.20;;;;;;;;;;4990846;28;20123;-80
2021/09/09 09:19:20;;;;;;;2.42;1.20;;;;;;;;;;4972767;28;20069;-80
2021/09/09 09:21:49;;;;;;;2.05;1.30;;;;;;;;;;4978438;28;20042;-80
2021/09/09 09:24:19;;;;;;;1.10;0.93;;;;;;;;;;4974148;28;20108;-80
2021/09/09 09:27:04;;;;;;;1.35;1.25;;;;;;;;;;4993319;28;20060;-80
2021/09/09 09:29:31;;;;;;;1.38;1.27;;;;;;;;;;4960545;28;20160;-80
2021/09/09 09:32:08;;;;;;;2.78;1.15;;;;;;;;;;4973516;28;20054;-80
2021/09/09 09:34:34;;;;;;;1.00;0.90;;;;;;;;;;4988570;28;20125;-80
2021/09/09 09:37:01;;;;;;;3.72;1.00;;;;;;;;;;4975577;28;20039;-80
2021/09/09 09:39:28;;;;;;;2.35;0.90;;;;;;;;;;4972719;28;20065;-80
2021/09/09 09:41:54;;;;;;;2.42;1.10;;;;;;;;;;5009119;28;20092;-80
2021/09/09 09:44:32;;;;;;;1.13;1.13;;;;;;;;;;4975292;28;20051;-80
2021/09/09 09:47:08;;;;;;;1.05;0.90;;;;;;;;;;5018662;28;20111;-80
2021/09/09 09:49:37;;;;;;;1.00;1.00;;;;;;;;;;5032090;28;20041;-80
2021/09/09 09:52:04;;;;;;;1.58;0.90;;;;;;;;;;5031805;28;20069;-81
2021/09/09 09:54:31;;;;;;;0.90;0.90;;;;;;;;;;5033712;28;20034;-81
2021/09/09 09:56:59;;;;;;;1.33;1.10;;;;;;;;;;5027497;28;20034;-81
2021/09/09 09:59:26;;;;;;;1.10;1.00;;;;;;;;;;5027255;28;20823;-80
2021/09/09 10:01:53;;;;;;;2.80;0.95;;;;;;;;;;5032878;28;20118;-80
2021/09/09 10:04:21;;;;;;;2.00;0.90;;;;;;;;;;5027402;28;20083;-80
2021/09/09 10:06:49;;;;;;;0.80;0.80;;;;;;;;;;5034706;28;20049;-80
2021/09/09 10:09:17;;;;;;;1.00;1.00;;;;;;;;;;5034357;28;20056;-80
2021/09/09 10:11:44;;;;;;;10.82;0.90;;;;;;;;;;5015257;28;20044;-80
2021/09/09 10:14:22;;;;;;;1.42;1.33;;;;;;;;;;5028171;28;20409;-81
2021/09/09 10:16:52;;;;;;;0.90;0.90;;;;;;;;;;5034791;28;20034;-80
2021/09/09 10:19:23;;;;;;;0.80;0.80;;;;;;;;;;5030725;28;20369;-81
2021/09/09 10:21:53;;;;;;;1.00;0.90;;;;;;;;;;5030234;28;20034;-79
2021/09/09 10:24:27;;;;;;;1.50;0.88;;;;;;;;;;5030606;28;20053;-79
2021/09/09 10:27:14;;;;;;;0.98;0.90;;;;;;;;;;5037771;28;20049;-80
2021/09/09 10:29:41;;;;;;;1.42;1.00;;;;;;;;;;5020032;28;20053;-80
2021/09/09 10:32:08;;;;;;;0.80;0.80;;;;;;;;;;5013228;28;20057;-80
2021/09/09 10:34:35;;;;;;;3.33;1.08;;;;;;;;;;5018477;28;20040;-80
2021/09/09 10:37:03;;;;;;;1.33;0.90;;;;;;;;;;5030802;28;20090;-80
2021/09/09 10:39:33;;;;;;;0.80;0.80;;;;;;;;;;5029634;28;20057;-80
2021/09/09 10:42:20;;;;;;;1.10;1.00;;;;;;;;;;5028261;28;20045;-80
2021/09/09 10:44:50;;;;;;;1.00;0.80;;;;;;;;;;5017996;28;20069;-80
2021/09/09 10:47:18;;;;;;;0.88;0.88;;;;;;;;;;5029009;28;20076;-80
2021/09/09 10:49:44;;;;;;;0.82;0.82;;;;;;;;;;5028269;28;20044;-80
2021/09/09 10:52:12;;;;;;;1.10;1.00;;;;;;;;;;5028746;28;20049;-80
2021/09/09 10:54:58;;;;;;;0.80;0.80;;;;;;;;;;5024677;28;20098;-80
2021/09/09 10:57:25;;;;;;;1.67;1.15;;;;;;;;;;5028998;28;20038;-80
2021/09/09 10:59:51;;;;;;;2.88;0.80;;;;;;;;;;5018869;28;20103;-81
2021/09/09 11:02:18;;;;;;;0.80;0.80;;;;;;;;;;5040982;28;20052;-81
2021/09/09 11:04:49;;;;;;;2.70;0.80;;;;;;;;;;5060288;28;20042;-81
2021/09/09 11:07:21;;;;;;;0.82;0.82;;;;;;;;;;5020275;28;20437;-81
2021/09/09 11:09:58;;;;;;;3.70;1.35;;;;;;;;;;5031044;28;20041;-81
2021/09/09 11:12:25;;;;;;;0.70;0.70;;;;;;;;;;5029381;28;20099;-81
2021/09/09 11:14:52;;;;;;;0.70;0.70;;;;;;;;;;5019258;28;20069;-81
2021/09/09 11:17:19;;;;;;;0.85;0.70;;;;;;;;;;5042451;28;20612;-81
2021/09/09 11:19:45;;;;;;;0.93;0.60;;;;;;;;;;5029833;28;20132;-81
2021/09/09 11:22:19;;;;;;;1.38;0.95;;;;;;;;;;5027952;28;20037;-81
2021/09/09 11:24:46;;;;;;;0.70;0.70;;;;;;;;;;5020546;28;20482;-81
2021/09/09 11:27:13;;;;;;;0.70;0.70;;;;;;;;;;5029186;28;20053;-81
2021/09/09 11:29:40;;;;;;;0.82;0.68;;;;;;;;;;5029401;28;20056;-81
2021/09/09 11:32:07;;;;;;;1.60;0.70;;;;;;;;;;5047713;28;20144;-81
2021/09/09 11:34:37;;;;;;;0.90;0.90;;;;;;;;;;5032488;28;20038;-81
2021/09/09 11:37:04;;;;;;;0.60;0.60;;;;;;;;;;5030830;28;20045;-81
2021/09/09 11:39:33;;;;;;;0.68;0.68;;;;;;;;;;5065697;28;20115;-81
2021/09/09 11:42:00;;;;;;;0.70;0.70;;;;;;;;;;5049156;28;20036;-81
2021/09/09 11:44:27;;;;;;;0.80;0.68;;;;;;;;;;5016496;28;20053;-81
2021/09/09 11:46:55;;;;;;;0.60;0.60;;;;;;;;;;5015860;28;20042;-81
2021/09/09 11:49:23;;;;;;;0.70;0.70;;;;;;;;;;5030895;28;20053;-81
2021/09/09 11:51:52;;;;;;;1.88;0.70;;;;;;;;;;5019665;28;20100;-81
2021/09/09 11:54:26;;;;;;;1.05;0.63;;;;;;;;;;5024308;28;20062;-81
2021/09/09 11:57:04;;;;;;;0.60;0.60;;;;;;;;;;5040879;28;20033;-81
2021/09/09 11:59:32;;;;;;;1.75;0.70;;;;;;;;;;5016141;28;20042;-81
2021/09/09 12:02:06;;;;;;;0.70;0.70;;;;;;;;;;5041867;28;20052;-81
2021/09/09 12:04:34;;;;;;;0.70;0.70;;;;;;;;;;5030355;28;20150;-81
2021/09/09 12:07:01;;;;;;;0.70;0.70;;;;;;;;;;5062555;28;20045;-81
2021/09/09 12:09:32;;;;;;;0.60;0.60;;;;;;;;;;5030894;28;20838;-81
2021/09/09 12:12:03;;;;;;;1.27;0.70;;;;;;;;;;5012710;28;20510;-81
2021/09/09 12:14:30;;;;;;;1.23;0.82;;;;;;;;;;5025951;28;20037;-81
2021/09/09 12:17:06;;;;;;;0.70;0.70;;;;;;;;;;5023734;28;20552;-81
2021/09/09 12:19:51;;;;;;;0.50;0.50;;;;;;;;;;5044593;28;20043;-81
2021/09/09 12:22:18;;;;;;;0.63;0.63;;;;;;;;;;5043853;28;20045;-81
2021/09/09 12:24:44;;;;;;;0.60;0.60;;;;;;;;;;5032560;28;20045;-81
2021/09/09 12:27:15;;;;;;;1.55;0.68;;;;;;;;;;5031149;28;20108;-78
2021/09/09 12:29:44;;;;;;;0.70;0.70;;;;;;;;;;5026979;28;20131;-78
2021/09/09 12:32:28;;;;;;;0.60;0.60;;;;;;;;;;5028790;28;20417;-78
2021/09/09 12:35:17;;;;;;;0.60;0.60;;;;;;;;;;5026806;28;20053;-78
2021/09/09 12:37:44;;;;;;;0.60;0.60;;;;;;;;;;5051869;28;20044;-78
2021/09/09 12:40:10;;;;;;;1.20;0.60;;;;;;;;;;5053769;28;20084;-77
2021/09/09 12:42:38;;;;;;;0.60;0.60;;;;;;;;;;5055827;28;20083;-77
2021/09/09 12:45:08;;;;;;;1.23;0.60;;;;;;;;;;5023882;28;20056;-79
2021/09/09 12:47:35;;;;;;;0.52;0.52;;;;;;;;;;5023882;28;20045;-79
2021/09/09 12:50:32;;;;;;;0.63;0.63;;;;;;;;;;5026150;28;20041;-79
2021/09/09 12:52:59;;;;;;;1.63;0.60;;;;;;;;;;4946887;28;20051;-79
2021/09/09 12:55:26;;;;;;;0.60;0.60;;;;;;;;;;4938122;28;20058;-79
2021/09/09 12:57:53;;;;;;;0.60;0.60;;;;;;;;;;4939656;29;20055;-79
2021/09/09 13:00:20;;;;;;;0.60;0.60;;;;;;;;;;4933087;29;20040;-79
2021/09/09 13:02:46;;;;;;;0.60;0.60;;;;;;;;;;4931352;29;20440;-79
2021/09/09 13:05:14;;;;;;;0.50;0.50;;;;;;;;;;4943820;28;20047;-79
2021/09/09 13:07:40;;;;;;;0.60;0.60;;;;;;;;;;4929622;28;20047;-79
2021/09/09 13:10:07;;;;;;;0.60;0.60;;;;;;;;;;4924126;29;20503;-79
2021/09/09 13:12:34;;;;;;;1.13;0.50;;;;;;;;;;4948765;29;20728;-79
2021/09/09 13:15:01;;;;;;;1.08;0.50;;;;;;;;;;4930736;29;20079;-79
2021/09/09 13:17:28;;;;;;;0.60;0.60;;;;;;;;;;4932676;29;20035;-79
2021/09/09 13:19:55;;;;;;;0.85;0.55;;;;;;;;;;4931131;29;20088;-79
2021/09/09 13:22:23;;;;;;;0.60;0.60;;;;;;;;;;4926008;29;20047;-79
2021/09/09 13:24:50;;;;;;;1.42;0.68;;;;;;;;;;4931300;28;20158;-79
2021/09/09 13:27:17;;;;;;;0.65;0.63;;;;;;;;;;4929638;29;20055;-79
2021/09/09 13:29:43;;;;;;;0.50;0.50;;;;;;;;;;4972964;28;20073;-79
2021/09/09 13:32:10;;;;;;;1.42;0.60;;;;;;;;;;5033810;28;20045;-79
2021/09/09 13:34:37;;;;;;;0.60;0.60;;;;;;;;;;5045692;28;20045;-79
2021/09/09 13:37:04;;;;;;;1.05;0.60;;;;;;;;;;5036738;28;20050;-79
2021/09/09 13:39:30;;;;;;;0.82;0.70;;;;;;;;;;5059550;28;20046;-79
2021/09/09 13:41:57;;;;;;;0.60;0.60;;;;;;;;;;5045778;28;20544;-79
2021/09/09 13:44:24;;;;;;;0.60;0.60;;;;;;;;;;5018420;28;20038;-79
2021/09/09 13:46:51;;;;;;;0.60;0.60;;;;;;;;;;5028011;28;20065;-79
2021/09/09 13:49:18;;;;;;;0.57;0.57;;;;;;;;;;5032600;28;20057;-79
2021/09/09 13:51:45;;;;;;;0.68;0.68;;;;;;;;;;5029823;28;20045;-79
2021/09/09 13:54:12;;;;;;;0.60;0.60;;;;;;;;;;5030333;28;20041;-79
2021/09/09 13:56:38;;;;;;;0.52;0.52;;;;;;;;;;5031713;28;20049;-79
2021/09/09 13:59:05;;;;;;;0.52;0.52;;;;;;;;;;5027540;28;20091;-79
2021/09/09 14:01:32;;;;;;;0.60;0.60;;;;;;;;;;5014110;28;20045;-79
2021/09/09 14:03:59;;;;;;;0.60;0.60;;;;;;;;;;5022437;28;20449;-79
2021/09/09 14:06:26;;;;;;;1.88;0.57;;;;;;;;;;5025367;28;20049;-79
2021/09/09 14:08:53;;;;;;;0.60;0.60;;;;;;;;;;5032290;28;20049;-79
2021/09/09 14:11:20;;;;;;;0.50;0.50;;;;;;;;;;5024893;28;20580;-79
2021/09/09 14:13:46;;;;;;;0.60;0.60;;;;;;;;;;5016582;28;20426;-79
2021/09/09 14:16:13;;;;;;;0.95;0.70;;;;;;;;;;5031701;28;20046;-79
2021/09/09 14:18:40;;;;;;;0.70;0.70;;;;;;;;;;5030122;28;20446;-79
2021/09/09 14:21:07;;;;;;;0.70;0.70;;;;;;;;;;5030343;28;20072;-79
2021/09/09 14:23:33;;;;;;;1.85;0.63;;;;;;;;;;5061517;28;20128;-79
2021/09/09 14:26:00;;;;;;;0.70;0.70;;;;;;;;;;5030854;28;20041;-79
2021/09/09 14:28:27;;;;;;;1.17;0.70;;;;;;;;;;5029898;28;20049;-79
2021/09/09 14:30:54;;;;;;;1.45;0.70;;;;;;;;;;5029143;28;20037;-79
2021/09/09 14:33:21;;;;;;;3.25;0.68;;;;;;;;;;5029295;28;20045;-79
2021/09/09 14:35:47;;;;;;;2.88;0.60;;;;;;;;;;5038835;28;20104;-79
2021/09/09 14:38:14;;;;;;;1.80;0.70;;;;;;;;;;5048166;28;20040;-79
2021/09/09 14:40:41;;;;;;;0.60;0.60;;;;;;;;;;5025895;28;20049;-79
2021/09/09 14:43:08;;;;;;;0.70;0.70;;;;;;;;;;5060218;28;20093;-79
2021/09/09 14:45:35;;;;;;;2.50;0.70;;;;;;;;;;5030464;28;20071;-79
2021/09/09 14:48:04;;;;;;;1.88;0.60;;;;;;;;;;5029721;28;20037;-79